createdAt,value
2019-02-28T00:00:01.299Z,0
2019-02-28T00:00:41.850Z,0
2019-02-28T00:01:22.410Z,0
2019-02-28T00:02:03.008Z,0
2019-02-28T00:02:43.580Z,0
2019-02-28T00:03:26.079Z,0
2019-02-28T00:04:04.725Z,0
2019-02-28T00:04:45.336Z,0
2019-02-28T00:05:25.914Z,0
2019-02-28T00:06:11.348Z,0
2019-02-28T00:06:47.089Z,0
2019-02-28T00:07:27.686Z,0
2019-02-28T00:08:08.274Z,0
2019-02-28T00:08:50.964Z,0
2019-02-28T00:09:29.388Z,0
2019-02-28T00:10:09.956Z,0
2019-02-28T00:10:50.514Z,0
2019-02-28T00:11:31.106Z,0
2019-02-28T00:12:13.503Z,0
2019-02-28T00:12:52.244Z,0
2019-02-28T00:13:32.813Z,0
2019-02-28T00:14:13.403Z,0
2019-02-28T00:14:53.957Z,0
2019-02-28T00:15:34.535Z,0
2019-02-28T00:16:15.120Z,0
2019-02-28T00:16:55.693Z,0
2019-02-28T00:17:36.296Z,0
2019-02-28T00:18:16.877Z,0
2019-02-28T00:18:57.474Z,0
2019-02-28T00:19:37.995Z,0
2019-02-28T00:20:18.583Z,0
2019-02-28T00:20:59.169Z,0
2019-02-28T00:21:40.383Z,0
2019-02-28T00:22:20.282Z,0
2019-02-28T00:23:00.862Z,0
2019-02-28T00:23:41.423Z,0
2019-02-28T00:24:21.993Z,0
2019-02-28T00:25:04.183Z,0
2019-02-28T00:25:43.128Z,0
2019-02-28T00:26:23.720Z,0
2019-02-28T00:27:04.348Z,0
2019-02-28T00:27:44.892Z,0
2019-02-28T00:28:26.454Z,0
2019-02-28T00:29:06.033Z,0
2019-02-28T00:29:46.614Z,0
2019-02-28T00:30:27.196Z,0
2019-02-28T00:31:07.756Z,0
2019-02-28T00:31:49.856Z,0
2019-02-28T00:32:28.868Z,0
2019-02-28T00:33:09.451Z,0
2019-02-28T00:33:50.014Z,0
2019-02-28T00:34:30.567Z,0
2019-02-28T00:35:13.339Z,0
2019-02-28T00:35:51.719Z,0
2019-02-28T00:36:32.299Z,0
2019-02-28T00:37:12.855Z,0
2019-02-28T00:37:56.123Z,0
2019-02-28T00:38:34.040Z,0
2019-02-28T00:39:14.594Z,0
2019-02-28T00:39:55.167Z,0
2019-02-28T00:40:38.451Z,0
2019-02-28T00:41:16.352Z,0
2019-02-28T00:41:56.920Z,0
2019-02-28T00:42:37.494Z,0
2019-02-28T00:43:18.112Z,0
2019-02-28T00:43:58.660Z,0
2019-02-28T00:44:39.232Z,0
2019-02-28T00:45:19.826Z,0
2019-02-28T00:46:00.398Z,0
2019-02-28T00:46:43.812Z,0
2019-02-28T00:47:21.536Z,0
2019-02-28T00:48:02.095Z,0
2019-02-28T00:48:42.677Z,0
2019-02-28T00:49:24.431Z,0
2019-02-28T00:50:03.859Z,0
2019-02-28T00:50:44.414Z,0
2019-02-28T00:51:25.046Z,0
2019-02-28T00:52:05.692Z,0
2019-02-28T00:52:46.250Z,0
2019-02-28T00:53:26.815Z,0
2019-02-28T00:54:08.497Z,0
2019-02-28T00:54:47.970Z,0
2019-02-28T00:55:28.524Z,0
2019-02-28T00:56:09.123Z,0
2019-02-28T00:56:52.406Z,0
2019-02-28T00:57:30.299Z,0
2019-02-28T00:58:10.865Z,0
2019-02-28T00:58:51.432Z,0
2019-02-28T00:59:32.444Z,0
2019-02-28T01:00:12.583Z,0
2019-02-28T01:00:53.159Z,0
2019-02-28T01:01:33.718Z,0
2019-02-28T01:02:14.273Z,0
2019-02-28T01:02:54.855Z,0
2019-02-28T01:03:35.429Z,0
2019-02-28T01:04:16.022Z,0
2019-02-28T01:04:56.580Z,0
2019-02-28T01:05:37.301Z,0
2019-02-28T01:06:17.799Z,0
2019-02-28T01:06:58.410Z,0
2019-02-28T01:07:39.028Z,0
2019-02-28T01:08:22.074Z,0
2019-02-28T01:09:00.202Z,0
2019-02-28T01:09:40.787Z,0
2019-02-28T01:10:21.364Z,0
2019-02-28T01:11:01.911Z,0
2019-02-28T01:11:44.751Z,0
2019-02-28T01:12:23.041Z,0
2019-02-28T01:13:03.607Z,0
2019-02-28T01:13:44.239Z,0
2019-02-28T01:14:24.774Z,0
2019-02-28T01:15:07.119Z,0
2019-02-28T01:15:45.911Z,0
2019-02-28T01:16:26.486Z,0
2019-02-28T01:17:07.048Z,0
2019-02-28T01:17:47.618Z,0
2019-02-28T01:18:28.200Z,0
2019-02-28T01:19:09.948Z,0
2019-02-28T01:19:49.358Z,0
2019-02-28T01:20:29.915Z,0
2019-02-28T01:21:10.489Z,0
2019-02-28T01:21:51.060Z,0
2019-02-28T01:22:31.619Z,0
2019-02-28T01:23:12.236Z,0
2019-02-28T01:23:52.794Z,0
2019-02-28T01:24:34.754Z,0
2019-02-28T01:25:13.915Z,0
2019-02-28T01:25:54.483Z,0
2019-02-28T01:26:35.080Z,0
2019-02-28T01:27:17.259Z,0
2019-02-28T01:27:56.224Z,0
2019-02-28T01:28:36.799Z,0
2019-02-28T01:29:17.366Z,0
2019-02-28T01:29:57.918Z,0
2019-02-28T01:30:40.464Z,0
2019-02-28T01:31:19.046Z,0
2019-02-28T01:31:59.602Z,0
2019-02-28T01:32:40.160Z,0
2019-02-28T01:33:24.542Z,0
2019-02-28T01:34:01.327Z,0
2019-02-28T01:34:41.918Z,0
2019-02-28T01:35:22.473Z,0
2019-02-28T01:36:03.047Z,0
2019-02-28T01:36:45.876Z,0
2019-02-28T01:37:24.171Z,0
2019-02-28T01:38:04.778Z,0
2019-02-28T01:38:45.353Z,0
2019-02-28T01:39:25.939Z,0
2019-02-28T01:40:06.535Z,0
2019-02-28T01:40:47.106Z,0
2019-02-28T01:41:27.666Z,0
2019-02-28T01:42:08.228Z,0
2019-02-28T01:42:53.647Z,0
2019-02-28T01:43:29.572Z,0
2019-02-28T01:44:09.953Z,0
2019-02-28T01:44:50.521Z,0
2019-02-28T01:45:31.064Z,0
2019-02-28T01:46:14.390Z,0
2019-02-28T01:46:52.206Z,0
2019-02-28T01:47:32.756Z,0
2019-02-28T01:48:13.381Z,0
2019-02-28T01:48:54.507Z,0
2019-02-28T01:49:34.483Z,0
2019-02-28T01:50:15.050Z,0
2019-02-28T01:50:55.661Z,0
2019-02-28T01:51:36.819Z,0
2019-02-28T01:52:16.841Z,0
2019-02-28T01:52:57.423Z,0
2019-02-28T01:53:37.978Z,0
2019-02-28T01:54:18.544Z,0
2019-02-28T01:54:59.167Z,0
2019-02-28T01:55:39.698Z,0
2019-02-28T01:56:20.287Z,0
2019-02-28T01:57:00.884Z,0
2019-02-28T01:57:43.713Z,0
2019-02-28T01:58:22.017Z,0
2019-02-28T01:59:02.587Z,0
2019-02-28T01:59:43.174Z,0
2019-02-28T02:00:24.450Z,0
2019-02-28T02:01:04.303Z,0
2019-02-28T02:01:45.283Z,0
2019-02-28T02:02:25.851Z,0
2019-02-28T02:03:09.477Z,0
2019-02-28T02:03:47.007Z,0
2019-02-28T02:04:27.566Z,0
2019-02-28T02:05:08.133Z,0
2019-02-28T02:05:51.648Z,0
2019-02-28T02:06:29.292Z,0
2019-02-28T02:07:09.931Z,0
2019-02-28T02:07:50.493Z,0
2019-02-28T02:08:31.079Z,0
2019-02-28T02:09:11.842Z,0
2019-02-28T02:09:52.214Z,0
2019-02-28T02:10:32.779Z,0
2019-02-28T02:11:13.346Z,0
2019-02-28T02:11:53.906Z,0
2019-02-28T02:12:34.453Z,0
2019-02-28T02:13:15.018Z,0
2019-02-28T02:13:55.616Z,0
2019-02-28T02:14:36.170Z,0
2019-02-28T02:15:17.656Z,0
2019-02-28T02:15:57.308Z,0
2019-02-28T02:16:37.862Z,0
2019-02-28T02:17:18.428Z,0
2019-02-28T02:17:58.991Z,0
2019-02-28T02:18:40.198Z,0
2019-02-28T02:19:20.145Z,0
2019-02-28T02:20:00.753Z,0
2019-02-28T02:20:41.321Z,0
2019-02-28T02:21:21.883Z,0
2019-02-28T02:22:02.471Z,0
2019-02-28T02:22:44.310Z,0
2019-02-28T02:23:23.610Z,0
2019-02-28T02:24:04.180Z,0
2019-02-28T02:24:44.760Z,0
2019-02-28T02:25:25.319Z,0
2019-02-28T02:26:08.338Z,0
2019-02-28T02:26:46.582Z,0
2019-02-28T02:27:27.148Z,0
2019-02-28T02:28:07.770Z,0
2019-02-28T02:28:48.328Z,0
2019-02-28T02:29:28.888Z,0
2019-02-28T02:30:15.024Z,0
2019-02-28T02:30:50.844Z,0
2019-02-28T02:31:30.576Z,0
2019-02-28T02:32:11.161Z,0
2019-02-28T02:32:51.740Z,0
2019-02-28T02:33:32.310Z,0
2019-02-28T02:34:12.876Z,0
2019-02-28T02:34:53.433Z,0
2019-02-28T02:35:33.998Z,0
2019-02-28T02:36:16.227Z,0
2019-02-28T02:36:55.158Z,0
2019-02-28T02:37:35.760Z,0
2019-02-28T02:38:16.324Z,0
2019-02-28T02:38:56.863Z,0
2019-02-28T02:39:37.462Z,0
2019-02-28T02:40:18.011Z,0
2019-02-28T02:41:00.351Z,0
2019-02-28T02:41:39.264Z,0
2019-02-28T02:42:19.878Z,0
2019-02-28T02:43:00.430Z,0
2019-02-28T02:43:40.993Z,0
2019-02-28T02:44:21.558Z,0
2019-02-28T02:45:04.748Z,0
2019-02-28T02:45:43.737Z,0
2019-02-28T02:46:23.245Z,0
2019-02-28T02:47:03.830Z,0
2019-02-28T02:47:44.410Z,0
2019-02-28T02:48:24.973Z,0
2019-02-28T02:49:05.561Z,0
2019-02-28T02:49:46.113Z,0
2019-02-28T02:50:33.889Z,0
2019-02-28T02:51:10.979Z,0
2019-02-28T02:51:50.252Z,0
2019-02-28T02:52:30.351Z,0
2019-02-28T02:53:09.015Z,0
2019-02-28T02:53:49.602Z,0
2019-02-28T02:54:30.154Z,0
2019-02-28T02:55:10.739Z,0
2019-02-28T02:55:51.287Z,0
2019-02-28T02:56:31.849Z,0
2019-02-28T02:57:13.865Z,0
2019-02-28T02:57:53.065Z,0
2019-02-28T02:58:33.661Z,0
2019-02-28T02:59:14.301Z,0
2019-02-28T02:59:54.866Z,0
2019-02-28T03:00:35.481Z,0
2019-02-28T03:01:16.029Z,0
2019-02-28T03:01:57.218Z,0
2019-02-28T03:02:37.174Z,0
2019-02-28T03:03:17.750Z,0
2019-02-28T03:03:58.336Z,0
2019-02-28T03:04:38.884Z,0
2019-02-28T03:05:19.454Z,0
2019-02-28T03:06:00.047Z,0
2019-02-28T03:06:40.615Z,0
2019-02-28T03:07:24.473Z,0
2019-02-28T03:08:01.748Z,0
2019-02-28T03:08:42.334Z,0
2019-02-28T03:09:22.930Z,0
2019-02-28T03:10:03.466Z,0
2019-02-28T03:10:44.029Z,0
2019-02-28T03:11:25.899Z,0
2019-02-28T03:12:05.192Z,0
2019-02-28T03:12:45.766Z,0
2019-02-28T03:13:26.331Z,0
2019-02-28T03:14:06.892Z,0
2019-02-28T03:14:48.674Z,0
2019-02-28T03:15:28.137Z,0
2019-02-28T03:16:08.698Z,0
2019-02-28T03:16:49.285Z,0
2019-02-28T03:17:29.834Z,0
2019-02-28T03:18:10.437Z,0
2019-02-28T03:18:56.463Z,0
2019-02-28T03:19:33.470Z,0
2019-02-28T03:20:12.196Z,0
2019-02-28T03:20:52.762Z,0
2019-02-28T03:21:33.298Z,0
2019-02-28T03:22:13.875Z,0
2019-02-28T03:22:54.449Z,0
2019-02-28T03:23:39.706Z,0
2019-02-28T03:24:16.403Z,0
2019-02-28T03:24:56.106Z,0
2019-02-28T03:25:36.685Z,0
2019-02-28T03:26:17.249Z,0
2019-02-28T03:26:57.816Z,0
2019-02-28T03:27:38.384Z,0
2019-02-28T03:28:18.937Z,0
2019-02-28T03:28:59.512Z,0
2019-02-28T03:29:43.669Z,0
2019-02-28T03:30:28.249Z,0
2019-02-28T03:31:11.474Z,0
2019-02-28T03:31:41.782Z,0
2019-02-28T03:32:22.371Z,0
2019-02-28T03:33:02.931Z,0
2019-02-28T03:33:43.490Z,0
2019-02-28T03:34:24.065Z,0
2019-02-28T03:35:04.770Z,0
2019-02-28T03:35:46.153Z,0
2019-02-28T03:36:26.703Z,0
2019-02-28T03:37:07.268Z,0
2019-02-28T03:37:47.840Z,0
2019-02-28T03:38:28.439Z,0
2019-02-28T03:39:09.034Z,0
2019-02-28T03:39:49.587Z,0
2019-02-28T03:40:30.186Z,0
2019-02-28T03:41:16.005Z,0
2019-02-28T03:41:52.832Z,0
2019-02-28T03:42:31.901Z,0
2019-02-28T03:43:12.465Z,0
2019-02-28T03:43:53.039Z,0
2019-02-28T03:44:33.621Z,0
2019-02-28T03:45:14.263Z,0
2019-02-28T03:45:54.769Z,0
2019-02-28T03:46:35.339Z,0
2019-02-28T03:47:22.444Z,0
2019-02-28T03:47:58.685Z,0
2019-02-28T03:48:37.076Z,0
2019-02-28T03:49:17.654Z,0
2019-02-28T03:49:58.234Z,0
2019-02-28T03:50:38.801Z,0
2019-02-28T03:51:19.420Z,0
2019-02-28T03:52:04.935Z,0
2019-02-28T03:52:43.710Z,0
2019-02-28T03:53:21.199Z,0
2019-02-28T03:54:01.691Z,0
2019-02-28T03:54:42.237Z,0
2019-02-28T03:55:22.818Z,0
2019-02-28T03:56:03.431Z,0
2019-02-28T03:56:51.000Z,0
2019-02-28T03:57:29.285Z,0
2019-02-28T03:58:05.792Z,0
2019-02-28T03:58:45.840Z,0
2019-02-28T03:59:26.410Z,0
2019-02-28T04:00:07.026Z,0
2019-02-28T04:00:47.619Z,0
2019-02-28T04:01:28.214Z,0
2019-02-28T04:02:09.220Z,0
2019-02-28T04:02:56.577Z,0
2019-02-28T04:03:33.676Z,0
2019-02-28T04:04:12.315Z,0
2019-02-28T04:04:51.560Z,0
2019-02-28T04:05:32.157Z,0
2019-02-28T04:06:12.728Z,0
2019-02-28T04:06:53.307Z,0
2019-02-28T04:07:34.635Z,0
2019-02-28T04:08:14.441Z,0
2019-02-28T04:08:55.058Z,0
2019-02-28T04:09:35.616Z,0
2019-02-28T04:10:16.589Z,0
2019-02-28T04:10:56.736Z,0
2019-02-28T04:11:37.333Z,0
2019-02-28T04:12:17.885Z,0
2019-02-28T04:12:58.491Z,0
2019-02-28T04:13:39.076Z,0
2019-02-28T04:14:19.676Z,0
2019-02-28T04:15:00.416Z,0
2019-02-28T04:15:47.303Z,0
2019-02-28T04:16:21.415Z,0
2019-02-28T04:17:02.034Z,0
2019-02-28T04:17:42.604Z,0
2019-02-28T04:18:23.237Z,0
2019-02-28T04:19:03.814Z,0
2019-02-28T04:19:44.383Z,0
2019-02-28T04:20:24.928Z,0
2019-02-28T04:21:10.125Z,0
2019-02-28T04:21:47.701Z,0
2019-02-28T04:22:26.673Z,0
2019-02-28T04:23:07.266Z,0
2019-02-28T04:23:47.846Z,0
2019-02-28T04:24:28.403Z,0
2019-02-28T04:25:08.987Z,0
2019-02-28T04:25:49.551Z,0
2019-02-28T04:26:31.049Z,0
2019-02-28T04:27:10.677Z,0
2019-02-28T04:27:51.264Z,0
2019-02-28T04:28:31.817Z,0
2019-02-28T04:29:12.396Z,0
2019-02-28T04:29:52.952Z,0
2019-02-28T04:30:33.566Z,0
2019-02-28T04:31:18.302Z,0
2019-02-28T04:31:54.733Z,0
2019-02-28T04:32:35.338Z,0
2019-02-28T04:33:15.938Z,0
2019-02-28T04:33:56.534Z,0
2019-02-28T04:34:37.096Z,0
2019-02-28T04:35:23.886Z,0
2019-02-28T04:36:00.385Z,0
2019-02-28T04:36:38.835Z,0
2019-02-28T04:37:19.415Z,0
2019-02-28T04:38:00.008Z,0
2019-02-28T04:38:40.605Z,0
2019-02-28T04:39:22.727Z,0
2019-02-28T04:40:01.758Z,0
2019-02-28T04:40:42.326Z,0
2019-02-28T04:41:22.922Z,0
2019-02-28T04:42:04.934Z,0
2019-02-28T04:42:44.022Z,0
2019-02-28T04:43:24.584Z,0
2019-02-28T04:44:05.182Z,0
2019-02-28T04:44:45.809Z,0
2019-02-28T04:45:27.056Z,0
2019-02-28T04:46:07.060Z,0
2019-02-28T04:46:47.624Z,0
2019-02-28T04:47:28.185Z,0
2019-02-28T04:48:13.424Z,0
2019-02-28T04:48:49.354Z,0
2019-02-28T04:49:29.922Z,0
2019-02-28T04:50:10.481Z,0
2019-02-28T04:50:51.041Z,0
2019-02-28T04:51:31.595Z,0
2019-02-28T04:52:12.837Z,0
2019-02-28T04:52:52.713Z,0
2019-02-28T04:53:33.304Z,0
2019-02-28T04:54:13.860Z,0
2019-02-28T04:54:54.410Z,0
2019-02-28T04:55:37.146Z,0
2019-02-28T04:56:15.524Z,0
2019-02-28T04:56:56.078Z,0
2019-02-28T04:57:36.654Z,0
2019-02-28T04:58:17.206Z,0
2019-02-28T04:58:59.483Z,0
2019-02-28T04:59:38.407Z,0
2019-02-28T05:00:19.016Z,0
2019-02-28T05:00:59.581Z,0
2019-02-28T05:01:40.173Z,0
2019-02-28T05:02:20.764Z,0
2019-02-28T05:03:01.326Z,0
2019-02-28T05:03:41.882Z,0
2019-02-28T05:04:22.491Z,0
2019-02-28T05:05:03.069Z,0
2019-02-28T05:05:46.350Z,0
2019-02-28T05:06:24.236Z,0
2019-02-28T05:07:04.786Z,0
2019-02-28T05:07:45.377Z,0
2019-02-28T05:08:25.931Z,0
2019-02-28T05:09:06.513Z,0
2019-02-28T05:09:48.058Z,0
2019-02-28T05:10:27.683Z,0
2019-02-28T05:11:08.243Z,0
2019-02-28T05:11:48.796Z,0
2019-02-28T05:12:29.351Z,0
2019-02-28T05:13:11.356Z,0
2019-02-28T05:13:50.518Z,0
2019-02-28T05:14:31.078Z,0
2019-02-28T05:15:11.648Z,0
2019-02-28T05:15:52.240Z,0
2019-02-28T05:16:32.841Z,0
2019-02-28T05:17:13.405Z,0
2019-02-28T05:17:55.842Z,0
2019-02-28T05:18:34.634Z,0
2019-02-28T05:19:15.202Z,0
2019-02-28T05:19:55.790Z,0
2019-02-28T05:20:36.414Z,0
2019-02-28T05:21:19.462Z,0
2019-02-28T05:21:57.567Z,0
2019-02-28T05:22:38.142Z,0
2019-02-28T05:23:18.737Z,0
2019-02-28T05:23:59.319Z,4
2019-02-28T05:24:42.544Z,4
2019-02-28T05:25:20.462Z,4
2019-02-28T05:26:01.030Z,0
2019-02-28T05:26:41.604Z,0
2019-02-28T05:27:24.258Z,4
2019-02-28T05:28:02.908Z,4
2019-02-28T05:28:43.463Z,4
2019-02-28T05:29:24.045Z,4
2019-02-28T05:30:04.619Z,8
2019-02-28T05:30:45.207Z,8
2019-02-28T05:31:27.058Z,8
2019-02-28T05:32:06.432Z,8
2019-02-28T05:32:47.037Z,8
2019-02-28T05:33:27.610Z,12
2019-02-28T05:34:08.229Z,12
2019-02-28T05:34:50.928Z,12
2019-02-28T05:35:29.345Z,16
2019-02-28T05:36:09.887Z,16
2019-02-28T05:36:50.460Z,20
2019-02-28T05:37:31.258Z,20
2019-02-28T05:38:11.918Z,24
2019-02-28T05:38:53.522Z,28
2019-02-28T05:39:33.515Z,28
2019-02-28T05:40:14.354Z,36
2019-02-28T05:40:55.551Z,40
2019-02-28T05:41:36.323Z,44
2019-02-28T05:42:16.832Z,44
2019-02-28T05:42:58.271Z,52
2019-02-28T05:43:38.441Z,56
2019-02-28T05:44:21.266Z,60
2019-02-28T05:45:00.014Z,64
2019-02-28T05:45:41.387Z,72
2019-02-28T05:46:23.617Z,76
2019-02-28T05:47:02.764Z,88
2019-02-28T05:47:46.527Z,92
2019-02-28T05:48:24.414Z,100
2019-02-28T05:49:05.089Z,112
2019-02-28T05:49:45.764Z,116
2019-02-28T05:50:26.338Z,124
2019-02-28T05:51:06.916Z,136
2019-02-28T05:51:47.491Z,144
2019-02-28T05:52:30.407Z,156
2019-02-28T05:53:09.241Z,168
2019-02-28T05:53:49.669Z,176
2019-02-28T05:54:30.470Z,192
2019-02-28T05:55:11.246Z,200
2019-02-28T05:55:52.010Z,212
2019-02-28T05:56:33.092Z,224
2019-02-28T05:57:13.411Z,240
2019-02-28T05:57:54.164Z,252
2019-02-28T05:58:34.828Z,268
2019-02-28T05:59:15.709Z,284
2019-02-28T06:00:01.214Z,296
2019-02-28T06:00:37.762Z,312
2019-02-28T06:01:17.819Z,328
2019-02-28T06:01:59.125Z,344
2019-02-28T06:02:39.782Z,364
2019-02-28T06:03:20.364Z,380
2019-02-28T06:04:03.132Z,396
2019-02-28T06:04:41.520Z,420
2019-02-28T06:05:22.090Z,436
2019-02-28T06:06:02.673Z,456
2019-02-28T06:06:43.227Z,480
2019-02-28T06:07:25.902Z,500
2019-02-28T06:08:04.361Z,528
2019-02-28T06:08:45.013Z,548
2019-02-28T06:09:25.595Z,576
2019-02-28T06:10:06.325Z,596
2019-02-28T06:10:47.175Z,616
2019-02-28T06:11:28.082Z,640
2019-02-28T06:12:09.503Z,668
2019-02-28T06:12:50.078Z,688
2019-02-28T06:13:30.835Z,716
2019-02-28T06:14:11.756Z,744
2019-02-28T06:14:52.728Z,772
2019-02-28T06:15:34.164Z,800
2019-02-28T06:16:14.430Z,828
2019-02-28T06:16:55.206Z,860
2019-02-28T06:17:36.262Z,884
2019-02-28T06:18:17.006Z,912
2019-02-28T06:18:57.769Z,944
2019-02-28T06:19:40.130Z,980
2019-02-28T06:20:19.412Z,1012
2019-02-28T06:21:00.282Z,1036
2019-02-28T06:21:41.038Z,1064
2019-02-28T06:22:21.859Z,1100
2019-02-28T06:23:02.539Z,1132
2019-02-28T06:23:43.154Z,1168
2019-02-28T06:24:23.925Z,1208
2019-02-28T06:25:04.452Z,1252
2019-02-28T06:25:45.080Z,1288
2019-02-28T06:26:25.701Z,1320
2019-02-28T06:27:07.357Z,1348
2019-02-28T06:27:50.230Z,1376
2019-02-28T06:28:30.929Z,1404
2019-02-28T06:29:08.383Z,1432
2019-02-28T06:29:48.948Z,1460
2019-02-28T06:30:29.631Z,1500
2019-02-28T06:31:14.207Z,1552
2019-02-28T06:31:51.440Z,1596
2019-02-28T06:32:32.131Z,1612
2019-02-28T06:33:12.753Z,1660
2019-02-28T06:33:54.651Z,1712
2019-02-28T06:34:33.953Z,1724
2019-02-28T06:35:17.178Z,1756
2019-02-28T06:35:55.106Z,1804
2019-02-28T06:36:35.704Z,1856
2019-02-28T06:37:16.306Z,1892
2019-02-28T06:37:56.915Z,1932
2019-02-28T06:38:40.866Z,1972
2019-02-28T06:39:26.788Z,2000
2019-02-28T06:40:04.805Z,2024
2019-02-28T06:40:45.411Z,2056
2019-02-28T06:41:25.982Z,2108
2019-02-28T06:42:06.551Z,2164
2019-02-28T06:42:47.660Z,2196
2019-02-28T06:43:27.834Z,2256
2019-02-28T06:44:08.494Z,2304
2019-02-28T06:44:49.200Z,2360
2019-02-28T06:45:29.768Z,2396
2019-02-28T06:46:10.349Z,2432
2019-02-28T06:46:50.980Z,2488
2019-02-28T06:47:31.578Z,2488
2019-02-28T06:48:12.179Z,2524
2019-02-28T06:48:52.792Z,2560
2019-02-28T06:49:33.408Z,2620
2019-02-28T06:50:13.978Z,2664
2019-02-28T06:50:54.613Z,2684
2019-02-28T06:51:35.186Z,2688
2019-02-28T06:52:15.772Z,2780
2019-02-28T06:52:58.923Z,2848
2019-02-28T06:53:36.937Z,2924
2019-02-28T06:54:17.531Z,2984
2019-02-28T06:54:58.110Z,3004
2019-02-28T06:55:38.677Z,3084
2019-02-28T06:56:21.833Z,3216
2019-02-28T06:56:59.823Z,3328
2019-02-28T06:57:40.419Z,3404
2019-02-28T06:58:20.996Z,3468
2019-02-28T06:59:01.580Z,3620
2019-02-28T06:59:42.171Z,3676
2019-02-28T07:00:22.737Z,3656
2019-02-28T07:01:03.369Z,3728
2019-02-28T07:01:43.989Z,3796
2019-02-28T07:02:24.591Z,3816
2019-02-28T07:03:05.183Z,3872
2019-02-28T07:03:53.215Z,3964
2019-02-28T07:04:26.438Z,3960
2019-02-28T07:05:07.012Z,4016
2019-02-28T07:05:47.601Z,4052
2019-02-28T07:06:28.174Z,4064
2019-02-28T07:07:10.165Z,4116
2019-02-28T07:07:50.035Z,4132
2019-02-28T07:08:29.946Z,4160
2019-02-28T07:09:10.499Z,4168
2019-02-28T07:09:51.099Z,4248
2019-02-28T07:10:31.641Z,4308
2019-02-28T07:11:12.212Z,4296
2019-02-28T07:11:54.705Z,4332
2019-02-28T07:12:33.412Z,4352
2019-02-28T07:13:14.009Z,4380
2019-02-28T07:13:54.611Z,4376
2019-02-28T07:14:35.261Z,4440
2019-02-28T07:15:15.826Z,4444
2019-02-28T07:15:58.924Z,4464
2019-02-28T07:16:37.827Z,4536
2019-02-28T07:17:17.556Z,4532
2019-02-28T07:17:58.140Z,4604
2019-02-28T07:18:38.697Z,4676
2019-02-28T07:19:19.264Z,4716
2019-02-28T07:20:01.860Z,4668
2019-02-28T07:20:40.419Z,4664
2019-02-28T07:21:20.986Z,4684
2019-02-28T07:22:01.554Z,4700
2019-02-28T07:22:42.135Z,4728
2019-02-28T07:23:22.690Z,4776
2019-02-28T07:24:03.747Z,4860
2019-02-28T07:24:43.854Z,4880
2019-02-28T07:25:24.431Z,4964
2019-02-28T07:26:05.007Z,5064
2019-02-28T07:26:45.570Z,5092
2019-02-28T07:27:26.378Z,5104
2019-02-28T07:28:06.669Z,5152
2019-02-28T07:28:47.222Z,5200
2019-02-28T07:29:27.772Z,5320
2019-02-28T07:30:08.368Z,5288
2019-02-28T07:30:50.281Z,5216
2019-02-28T07:31:29.492Z,5292
2019-02-28T07:32:10.049Z,5364
2019-02-28T07:32:50.625Z,5440
2019-02-28T07:33:31.240Z,5472
2019-02-28T07:34:11.857Z,5592
2019-02-28T07:34:54.956Z,5652
2019-02-28T07:35:34.235Z,5576
2019-02-28T07:36:13.503Z,5680
2019-02-28T07:36:54.097Z,5764
2019-02-28T07:37:34.790Z,5712
2019-02-28T07:38:15.346Z,5736
2019-02-28T07:38:57.743Z,5804
2019-02-28T07:39:40.252Z,5820
2019-02-28T07:40:17.476Z,5868
2019-02-28T07:40:57.651Z,5836
2019-02-28T07:41:38.238Z,5888
2019-02-28T07:42:18.798Z,6024
2019-02-28T07:42:59.362Z,6036
2019-02-28T07:43:39.930Z,6124
2019-02-28T07:44:22.108Z,6216
2019-02-28T07:45:01.093Z,6276
2019-02-28T07:45:41.647Z,6364
2019-02-28T07:46:22.208Z,6328
2019-02-28T07:47:02.799Z,6388
2019-02-28T07:47:43.357Z,6492
2019-02-28T07:48:27.499Z,6508
2019-02-28T07:49:04.519Z,6616
2019-02-28T07:49:45.117Z,6648
2019-02-28T07:50:25.654Z,6644
2019-02-28T07:51:06.225Z,6816
2019-02-28T07:51:46.766Z,6836
2019-02-28T07:52:32.246Z,6840
2019-02-28T07:53:08.718Z,8784
2019-02-28T07:53:48.581Z,24224
2019-02-28T07:54:31.144Z,45056
2019-02-28T07:55:09.716Z,57920
2019-02-28T07:55:50.308Z,60640
2019-02-28T07:56:30.858Z,59776
2019-02-28T07:57:16.820Z,59488
2019-02-28T07:57:56.157Z,56608
2019-02-28T07:58:33.589Z,57216
2019-02-28T07:59:13.169Z,53984
2019-02-28T07:59:53.817Z,56064
2019-02-28T08:00:34.421Z,57184
2019-02-28T08:01:14.984Z,56352
2019-02-28T08:01:56.210Z,55552
2019-02-28T08:02:39.119Z,53856
2019-02-28T08:03:17.350Z,54624
2019-02-28T08:03:57.923Z,55392
2019-02-28T08:04:38.508Z,56448
2019-02-28T08:05:19.081Z,54720
2019-02-28T08:06:04.371Z,53856
2019-02-28T08:06:40.437Z,51936
2019-02-28T08:07:20.807Z,52224
2019-02-28T08:08:01.407Z,51104
2019-02-28T08:08:41.992Z,51328
2019-02-28T08:09:22.569Z,53184
2019-02-28T08:10:03.165Z,51904
2019-02-28T08:10:43.757Z,49632
2019-02-28T08:11:24.327Z,51616
2019-02-28T08:12:04.918Z,49120
2019-02-28T08:12:45.494Z,47552
2019-02-28T08:13:26.067Z,46752
2019-02-28T08:14:09.149Z,46816
2019-02-28T08:14:47.887Z,44640
2019-02-28T08:15:27.837Z,41696
2019-02-28T08:16:08.461Z,44608
2019-02-28T08:16:49.024Z,47232
2019-02-28T08:17:29.637Z,49056
2019-02-28T08:18:10.222Z,50048
2019-02-28T08:18:51.258Z,49504
2019-02-28T08:19:31.403Z,48960
2019-02-28T08:20:11.979Z,48928
2019-02-28T08:20:52.556Z,49248
2019-02-28T08:21:33.120Z,51808
2019-02-28T08:22:13.716Z,49824
2019-02-28T08:22:56.478Z,49824
2019-02-28T08:23:34.852Z,50688
2019-02-28T08:24:15.419Z,51232
2019-02-28T08:24:55.992Z,51264
2019-02-28T08:25:39.602Z,52992
2019-02-28T08:26:18.759Z,53088
2019-02-28T08:26:57.719Z,52640
2019-02-28T08:27:38.288Z,51520
2019-02-28T08:28:18.873Z,50368
2019-02-28T08:28:59.447Z,50112
2019-02-28T08:29:44.564Z,43776
2019-02-28T08:30:20.747Z,50528
2019-02-28T08:31:01.190Z,49152
2019-02-28T08:31:41.769Z,51232
2019-02-28T08:32:22.353Z,51008
2019-02-28T08:33:02.929Z,51040
2019-02-28T08:33:43.566Z,47776
2019-02-28T08:34:24.989Z,49440
2019-02-28T08:35:04.800Z,49600
2019-02-28T08:35:45.359Z,51392
2019-02-28T08:36:26.003Z,50784
2019-02-28T08:37:06.586Z,47904
2019-02-28T08:37:47.181Z,48512
2019-02-28T08:38:30.032Z,48448
2019-02-28T08:39:08.785Z,47968
2019-02-28T08:39:48.944Z,46464
2019-02-28T08:40:29.515Z,47104
2019-02-28T08:41:10.130Z,47296
2019-02-28T08:41:50.742Z,47264
2019-02-28T08:42:31.309Z,44928
2019-02-28T08:43:13.425Z,44000
2019-02-28T08:43:52.523Z,42432
2019-02-28T08:44:33.179Z,42688
2019-02-28T08:45:13.737Z,42976
2019-02-28T08:45:54.339Z,42112
2019-02-28T08:46:34.916Z,41504
2019-02-28T08:47:17.769Z,40704
2019-02-28T08:47:56.946Z,38784
2019-02-28T08:48:36.665Z,38208
2019-02-28T08:49:17.225Z,37600
2019-02-28T08:49:57.868Z,36672
2019-02-28T08:50:38.445Z,34592
2019-02-28T08:51:19.033Z,31232
2019-02-28T08:52:02.442Z,32032
2019-02-28T08:52:40.991Z,32096
2019-02-28T08:53:20.863Z,30304
2019-02-28T08:54:01.458Z,29536
2019-02-28T08:54:42.030Z,29056
2019-02-28T08:55:28.512Z,27840
2019-02-28T08:56:03.277Z,26816
2019-02-28T08:56:46.108Z,26304
2019-02-28T08:57:25.577Z,24128
2019-02-28T08:58:06.662Z,22368
2019-02-28T08:58:45.838Z,19872
2019-02-28T08:59:26.412Z,19232
2019-02-28T09:00:07.150Z,18752
2019-02-28T09:00:47.612Z,18144
2019-02-28T09:01:28.506Z,17664
2019-02-28T09:02:09.170Z,17344
2019-02-28T09:02:52.844Z,16672
2019-02-28T09:03:30.938Z,16000
2019-02-28T09:04:11.561Z,15320
2019-02-28T09:04:52.126Z,15292
2019-02-28T09:05:32.708Z,14676
2019-02-28T09:06:13.373Z,14372
2019-02-28T09:06:54.013Z,14144
2019-02-28T09:07:34.558Z,13628
2019-02-28T09:08:15.159Z,13704
2019-02-28T09:08:56.569Z,13320
2019-02-28T09:09:36.299Z,12824
2019-02-28T09:10:16.889Z,12616
2019-02-28T09:10:57.434Z,12332
2019-02-28T09:11:38.008Z,12020
2019-02-28T09:12:18.566Z,11844
2019-02-28T09:12:59.134Z,11680
2019-02-28T09:13:39.930Z,11448
2019-02-28T09:14:20.299Z,11380
2019-02-28T09:15:00.869Z,11240
2019-02-28T09:15:41.463Z,11104
2019-02-28T09:16:22.042Z,11012
2019-02-28T09:17:02.614Z,10832
2019-02-28T09:17:43.292Z,10340
2019-02-28T09:18:23.874Z,10188
2019-02-28T09:19:04.472Z,9884
2019-02-28T09:19:45.053Z,9996
2019-02-28T09:20:25.646Z,9580
2019-02-28T09:21:06.204Z,10056
2019-02-28T09:21:49.312Z,9236
2019-02-28T09:22:28.139Z,9224
2019-02-28T09:23:08.266Z,9192
2019-02-28T09:23:48.884Z,9264
2019-02-28T09:24:30.658Z,8908
2019-02-28T09:25:11.606Z,9484
2019-02-28T09:25:53.302Z,9304
2019-02-28T09:26:32.732Z,9296
2019-02-28T09:27:13.307Z,8988
2019-02-28T09:27:53.900Z,9044
2019-02-28T09:28:34.466Z,9100
2019-02-28T09:29:15.059Z,8708
2019-02-28T09:29:55.670Z,9220
2019-02-28T09:30:36.234Z,9228
2019-02-28T09:31:16.815Z,9112
2019-02-28T09:31:57.392Z,9328
2019-02-28T09:32:37.960Z,8916